sensor_id;sensor_type;location;lat;lon;timestamp;P1;durP1;ratioP1;P2;durP2;ratioP2
19645;SDS011;9971;52.446;13.452;2022-09-09T00:03:27;4.83;;;4.53;;
19645;SDS011;9971;52.446;13.452;2022-09-09T00:08:37;5.17;;;4.87;;
19645;SDS011;9971;52.446;13.452;2022-09-09T00:13:48;5.03;;;4.62;;
19645;SDS011;9971;52.446;13.452;2022-09-09T00:19:23;4.70;;;4.40;;
19645;SDS011;9971;52.446;13.452;2022-09-09T00:24:29;4.70;;;4.40;;
19645;SDS011;9971;52.446;13.452;2022-09-09T00:29:41;4.40;;;4.10;;
19645;SDS011;9971;52.446;13.452;2022-09-09T00:34:48;4.97;;;4.50;;
19645;SDS011;9971;52.446;13.452;2022-09-09T00:39:50;4.17;;;3.87;;
19645;SDS011;9971;52.446;13.452;2022-09-09T00:44:56;4.50;;;4.10;;
19645;SDS011;9971;52.446;13.452;2022-09-09T00:50:00;4.97;;;4.57;;
19645;SDS011;9971;52.446;13.452;2022-09-09T00:55:05;4.72;;;4.42;;
19645;SDS011;9971;52.446;13.452;2022-09-09T01:00:21;4.40;;;4.03;;
19645;SDS011;9971;52.446;13.452;2022-09-09T01:05:27;4.80;;;4.50;;
19645;SDS011;9971;52.446;13.452;2022-09-09T01:10:39;4.43;;;4.13;;
19645;SDS011;9971;52.446;13.452;2022-09-09T01:15:38;4.40;;;4.10;;
19645;SDS011;9971;52.446;13.452;2022-09-09T01:20:46;3.97;;;3.77;;
19645;SDS011;9971;52.446;13.452;2022-09-09T01:26:20;4.60;;;4.30;;
19645;SDS011;9971;52.446;13.452;2022-09-09T01:31:05;4.57;;;4.27;;
19645;SDS011;9971;52.446;13.452;2022-09-09T01:36:12;4.73;;;4.33;;
19645;SDS011;9971;52.446;13.452;2022-09-09T01:41:14;4.07;;;3.67;;
19645;SDS011;9971;52.446;13.452;2022-09-09T01:46:16;3.63;;;3.43;;
19645;SDS011;9971;52.446;13.452;2022-09-09T01:51:18;4.33;;;4.03;;
19645;SDS011;9971;52.446;13.452;2022-09-09T01:56:25;4.50;;;4.20;;
19645;SDS011;9971;52.446;13.452;2022-09-09T02:06:36;3.93;;;3.70;;
19645;SDS011;9971;52.446;13.452;2022-09-09T02:11:38;4.17;;;3.87;;
19645;SDS011;9971;52.446;13.452;2022-09-09T02:16:41;4.00;;;3.70;;
19645;SDS011;9971;52.446;13.452;2022-09-09T02:21:44;4.23;;;3.83;;
19645;SDS011;9971;52.446;13.452;2022-09-09T02:26:45;4.37;;;4.07;;
19645;SDS011;9971;52.446;13.452;2022-09-09T02:31:47;4.80;;;4.37;;
19645;SDS011;9971;52.446;13.452;2022-09-09T02:36:49;4.20;;;3.90;;
19645;SDS011;9971;52.446;13.452;2022-09-09T02:41:51;3.97;;;3.67;;
19645;SDS011;9971;52.446;13.452;2022-09-09T02:47:01;4.05;;;3.75;;
19645;SDS011;9971;52.446;13.452;2022-09-09T02:52:02;3.83;;;3.53;;
19645;SDS011;9971;52.446;13.452;2022-09-09T02:57:08;4.40;;;4.10;;
19645;SDS011;9971;52.446;13.452;2022-09-09T03:02:22;4.07;;;3.77;;
19645;SDS011;9971;52.446;13.452;2022-09-09T03:07:25;4.33;;;4.03;;
19645;SDS011;9971;52.446;13.452;2022-09-09T03:12:27;4.20;;;3.90;;
19645;SDS011;9971;52.446;13.452;2022-09-09T03:17:29;4.60;;;4.17;;
19645;SDS011;9971;52.446;13.452;2022-09-09T03:22:32;4.47;;;4.08;;
19645;SDS011;9971;52.446;13.452;2022-09-09T03:27:34;3.85;;;3.55;;
19645;SDS011;9971;52.446;13.452;2022-09-09T03:32:37;4.12;;;3.83;;
19645;SDS011;9971;52.446;13.452;2022-09-09T03:37:39;4.30;;;4.00;;
19645;SDS011;9971;52.446;13.452;2022-09-09T03:42:41;5.00;;;3.77;;
19645;SDS011;9971;52.446;13.452;2022-09-09T03:47:44;4.30;;;4.00;;
19645;SDS011;9971;52.446;13.452;2022-09-09T03:52:46;4.40;;;4.05;;
19645;SDS011;9971;52.446;13.452;2022-09-09T03:57:48;3.98;;;3.67;;
19645;SDS011;9971;52.446;13.452;2022-09-09T04:02:54;3.90;;;3.45;;
19645;SDS011;9971;52.446;13.452;2022-09-09T04:07:57;3.42;;;3.17;;
19645;SDS011;9971;52.446;13.452;2022-09-09T04:12:59;3.72;;;3.37;;
19645;SDS011;9971;52.446;13.452;2022-09-09T04:18:02;3.05;;;2.85;;
19645;SDS011;9971;52.446;13.452;2022-09-09T04:23:04;3.45;;;3.25;;
19645;SDS011;9971;52.446;13.452;2022-09-09T04:28:07;3.72;;;3.45;;
19645;SDS011;9971;52.446;13.452;2022-09-09T04:33:10;3.52;;;3.22;;
19645;SDS011;9971;52.446;13.452;2022-09-09T04:38:12;3.30;;;3.10;;
19645;SDS011;9971;52.446;13.452;2022-09-09T04:43:14;3.30;;;3.00;;
19645;SDS011;9971;52.446;13.452;2022-09-09T04:48:17;3.40;;;3.10;;
19645;SDS011;9971;52.446;13.452;2022-09-09T04:53:19;3.27;;;3.03;;
19645;SDS011;9971;52.446;13.452;2022-09-09T04:58:21;3.30;;;2.77;;
19645;SDS011;9971;52.446;13.452;2022-09-09T05:03:23;3.95;;;3.10;;
19645;SDS011;9971;52.446;13.452;2022-09-09T05:08:26;3.25;;;2.75;;
19645;SDS011;9971;52.446;13.452;2022-09-09T05:13:28;2.85;;;2.65;;
19645;SDS011;9971;52.446;13.452;2022-09-09T05:18:30;3.07;;;2.77;;
19645;SDS011;9971;52.446;13.452;2022-09-09T05:23:33;2.60;;;2.40;;
19645;SDS011;9971;52.446;13.452;2022-09-09T05:28:35;3.52;;;2.67;;
19645;SDS011;9971;52.446;13.452;2022-09-09T05:33:38;2.80;;;2.50;;
19645;SDS011;9971;52.446;13.452;2022-09-09T05:38:40;2.80;;;2.60;;
19645;SDS011;9971;52.446;13.452;2022-09-09T05:43:41;3.67;;;3.07;;
19645;SDS011;9971;52.446;13.452;2022-09-09T05:48:44;2.77;;;2.57;;
19645;SDS011;9971;52.446;13.452;2022-09-09T05:53:45;3.10;;;2.80;;
19645;SDS011;9971;52.446;13.452;2022-09-09T05:58:48;4.10;;;2.80;;
19645;SDS011;9971;52.446;13.452;2022-09-09T06:03:49;4.43;;;2.70;;
19645;SDS011;9971;52.446;13.452;2022-09-09T06:08:52;2.80;;;2.60;;
19645;SDS011;9971;52.446;13.452;2022-09-09T06:13:53;3.43;;;3.13;;
19645;SDS011;9971;52.446;13.452;2022-09-09T06:18:55;2.80;;;2.55;;
19645;SDS011;9971;52.446;13.452;2022-09-09T06:23:57;2.30;;;2.07;;
19645;SDS011;9971;52.446;13.452;2022-09-09T06:29:00;3.17;;;2.17;;
19645;SDS011;9971;52.446;13.452;2022-09-09T06:34:03;3.07;;;2.33;;
19645;SDS011;9971;52.446;13.452;2022-09-09T06:39:04;2.60;;;2.20;;
19645;SDS011;9971;52.446;13.452;2022-09-09T06:44:05;3.60;;;3.30;;
19645;SDS011;9971;52.446;13.452;2022-09-09T06:49:08;4.35;;;3.62;;
19645;SDS011;9971;52.446;13.452;2022-09-09T06:54:10;2.83;;;2.63;;
19645;SDS011;9971;52.446;13.452;2022-09-09T06:59:12;2.80;;;1.90;;
19645;SDS011;9971;52.446;13.452;2022-09-09T07:04:14;3.05;;;1.77;;
19645;SDS011;9971;52.446;13.452;2022-09-09T07:09:16;2.17;;;1.85;;
19645;SDS011;9971;52.446;13.452;2022-09-09T07:14:18;1.90;;;1.70;;
19645;SDS011;9971;52.446;13.452;2022-09-09T07:19:20;5.07;;;4.57;;
19645;SDS011;9971;52.446;13.452;2022-09-09T07:24:23;1.98;;;1.77;;
19645;SDS011;9971;52.446;13.452;2022-09-09T07:29:25;2.00;;;1.80;;
19645;SDS011;9971;52.446;13.452;2022-09-09T07:34:33;2.40;;;1.87;;
19645;SDS011;9971;52.446;13.452;2022-09-09T07:39:36;2.10;;;1.87;;
19645;SDS011;9971;52.446;13.452;2022-09-09T07:44:41;1.97;;;1.60;;
19645;SDS011;9971;52.446;13.452;2022-09-09T07:49:45;1.73;;;1.40;;
19645;SDS011;9971;52.446;13.452;2022-09-09T07:54:48;2.03;;;1.60;;
19645;SDS011;9971;52.446;13.452;2022-09-09T07:59:50;2.60;;;1.60;;
19645;SDS011;9971;52.446;13.452;2022-09-09T08:04:53;2.57;;;1.60;;
19645;SDS011;9971;52.446;13.452;2022-09-09T08:09:55;1.67;;;1.40;;
19645;SDS011;9971;52.446;13.452;2022-09-09T08:14:58;3.47;;;1.70;;
19645;SDS011;9971;52.446;13.452;2022-09-09T08:20:00;2.00;;;1.53;;
19645;SDS011;9971;52.446;13.452;2022-09-09T08:25:02;1.50;;;1.32;;
19645;SDS011;9971;52.446;13.452;2022-09-09T08:30:05;1.92;;;1.45;;
19645;SDS011;9971;52.446;13.452;2022-09-09T08:35:08;1.35;;;1.25;;
19645;SDS011;9971;52.446;13.452;2022-09-09T08:40:13;2.00;;;1.32;;
19645;SDS011;9971;52.446;13.452;2022-09-09T08:45:18;1.87;;;1.10;;
19645;SDS011;9971;52.446;13.452;2022-09-09T08:50:34;3.17;;;1.70;;
19645;SDS011;9971;52.446;13.452;2022-09-09T08:55:51;1.65;;;1.27;;
19645;SDS011;9971;52.446;13.452;2022-09-09T09:06:06;2.15;;;1.37;;
19645;SDS011;9971;52.446;13.452;2022-09-09T09:11:21;1.17;;;1.10;;
19645;SDS011;9971;52.446;13.452;2022-09-09T09:16:27;1.83;;;1.27;;
19645;SDS011;9971;52.446;13.452;2022-09-09T09:21:34;2.05;;;1.62;;
19645;SDS011;9971;52.446;13.452;2022-09-09T09:26:34;1.70;;;1.10;;
19645;SDS011;9971;52.446;13.452;2022-09-09T09:31:35;2.57;;;1.17;;
19645;SDS011;9971;52.446;13.452;2022-09-09T09:36:40;1.77;;;1.20;;
19645;SDS011;9971;52.446;13.452;2022-09-09T09:41:41;1.67;;;0.95;;
19645;SDS011;9971;52.446;13.452;2022-09-09T09:46:42;1.47;;;1.00;;
19645;SDS011;9971;52.446;13.452;2022-09-09T09:51:45;1.70;;;1.00;;
19645;SDS011;9971;52.446;13.452;2022-09-09T09:56:47;1.80;;;1.10;;
19645;SDS011;9971;52.446;13.452;2022-09-09T10:01:49;2.20;;;1.37;;
19645;SDS011;9971;52.446;13.452;2022-09-09T10:06:51;1.20;;;1.07;;
19645;SDS011;9971;52.446;13.452;2022-09-09T10:12:05;1.50;;;1.10;;
19645;SDS011;9971;52.446;13.452;2022-09-09T10:17:14;2.93;;;1.67;;
19645;SDS011;9971;52.446;13.452;2022-09-09T10:22:23;2.97;;;1.37;;
19645;SDS011;9971;52.446;13.452;2022-09-09T10:33:22;1.70;;;1.00;;
19645;SDS011;9971;52.446;13.452;2022-09-09T10:38:10;3.45;;;1.10;;
19645;SDS011;9971;52.446;13.452;2022-09-09T10:43:16;1.80;;;1.02;;
19645;SDS011;9971;52.446;13.452;2022-09-09T10:59:11;2.20;;;1.32;;
19645;SDS011;9971;52.446;13.452;2022-09-09T11:04:45;2.63;;;1.30;;
19645;SDS011;9971;52.446;13.452;2022-09-09T11:09:41;1.43;;;1.33;;
19645;SDS011;9971;52.446;13.452;2022-09-09T11:14:43;1.40;;;0.90;;
19645;SDS011;9971;52.446;13.452;2022-09-09T11:19:44;1.27;;;0.82;;
19645;SDS011;9971;52.446;13.452;2022-09-09T11:24:49;2.20;;;1.13;;
19645;SDS011;9971;52.446;13.452;2022-09-09T11:40:15;1.40;;;0.80;;
19645;SDS011;9971;52.446;13.452;2022-09-09T11:45:22;2.27;;;1.20;;
19645;SDS011;9971;52.446;13.452;2022-09-09T11:55:40;1.73;;;1.10;;
19645;SDS011;9971;52.446;13.452;2022-09-09T12:00:44;1.77;;;1.00;;
19645;SDS011;9971;52.446;13.452;2022-09-09T12:05:45;2.40;;;1.00;;
19645;SDS011;9971;52.446;13.452;2022-09-09T12:10:53;2.03;;;0.87;;
19645;SDS011;9971;52.446;13.452;2022-09-09T12:15:55;0.80;;;0.70;;
19645;SDS011;9971;52.446;13.452;2022-09-09T12:21:14;2.70;;;0.98;;
19645;SDS011;9971;52.446;13.452;2022-09-09T12:26:25;1.23;;;0.70;;
19645;SDS011;9971;52.446;13.452;2022-09-09T12:31:46;0.87;;;0.70;;
19645;SDS011;9971;52.446;13.452;2022-09-09T12:37:05;1.00;;;0.63;;
19645;SDS011;9971;52.446;13.452;2022-09-09T12:42:04;1.03;;;0.70;;
19645;SDS011;9971;52.446;13.452;2022-09-09T12:47:09;1.37;;;0.90;;
19645;SDS011;9971;52.446;13.452;2022-09-09T12:52:13;1.77;;;0.63;;
19645;SDS011;9971;52.446;13.452;2022-09-09T12:57:14;0.78;;;0.75;;
19645;SDS011;9971;52.446;13.452;2022-09-09T13:02:18;1.50;;;0.60;;
19645;SDS011;9971;52.446;13.452;2022-09-09T13:07:20;0.70;;;0.63;;
19645;SDS011;9971;52.446;13.452;2022-09-09T13:12:22;1.17;;;0.67;;
19645;SDS011;9971;52.446;13.452;2022-09-09T13:17:25;1.07;;;0.80;;
19645;SDS011;9971;52.446;13.452;2022-09-09T13:22:29;1.57;;;0.83;;
19645;SDS011;9971;52.446;13.452;2022-09-09T13:33:33;0.70;;;0.70;;
19645;SDS011;9971;52.446;13.452;2022-09-09T13:38:18;1.20;;;0.60;;
19645;SDS011;9971;52.446;13.452;2022-09-09T13:43:21;1.73;;;1.10;;
19645;SDS011;9971;52.446;13.452;2022-09-09T13:48:23;0.87;;;0.60;;
19645;SDS011;9971;52.446;13.452;2022-09-09T13:53:25;1.20;;;0.70;;
19645;SDS011;9971;52.446;13.452;2022-09-09T13:58:27;1.00;;;0.60;;
19645;SDS011;9971;52.446;13.452;2022-09-09T14:03:29;1.32;;;0.90;;
19645;SDS011;9971;52.446;13.452;2022-09-09T14:08:32;1.62;;;0.88;;
19645;SDS011;9971;52.446;13.452;2022-09-09T14:13:34;1.47;;;1.03;;
19645;SDS011;9971;52.446;13.452;2022-09-09T14:18:36;1.90;;;1.10;;
19645;SDS011;9971;52.446;13.452;2022-09-09T14:23:38;1.77;;;1.00;;
19645;SDS011;9971;52.446;13.452;2022-09-09T14:28:41;2.42;;;1.15;;
19645;SDS011;9971;52.446;13.452;2022-09-09T14:33:44;1.75;;;0.93;;
19645;SDS011;9971;52.446;13.452;2022-09-09T14:38:46;1.05;;;0.78;;
19645;SDS011;9971;52.446;13.452;2022-09-09T14:43:48;2.58;;;1.35;;
19645;SDS011;9971;52.446;13.452;2022-09-09T14:48:51;1.98;;;1.07;;
19645;SDS011;9971;52.446;13.452;2022-09-09T14:53:54;2.43;;;1.17;;
19645;SDS011;9971;52.446;13.452;2022-09-09T14:58:56;1.45;;;1.00;;
19645;SDS011;9971;52.446;13.452;2022-09-09T15:03:59;1.30;;;1.20;;
19645;SDS011;9971;52.446;13.452;2022-09-09T15:09:00;2.45;;;1.30;;
19645;SDS011;9971;52.446;13.452;2022-09-09T15:14:03;2.30;;;1.20;;
19645;SDS011;9971;52.446;13.452;2022-09-09T15:19:05;1.98;;;1.15;;
19645;SDS011;9971;52.446;13.452;2022-09-09T15:24:07;1.77;;;1.00;;
19645;SDS011;9971;52.446;13.452;2022-09-09T15:29:10;0.93;;;0.75;;
19645;SDS011;9971;52.446;13.452;2022-09-09T15:34:12;0.88;;;0.70;;
19645;SDS011;9971;52.446;13.452;2022-09-09T15:39:15;1.40;;;1.02;;
19645;SDS011;9971;52.446;13.452;2022-09-09T15:44:17;1.90;;;1.00;;
19645;SDS011;9971;52.446;13.452;2022-09-09T15:49:21;1.63;;;1.10;;
19645;SDS011;9971;52.446;13.452;2022-09-09T15:54:26;1.00;;;0.77;;
19645;SDS011;9971;52.446;13.452;2022-09-09T15:59:29;1.40;;;0.78;;
19645;SDS011;9971;52.446;13.452;2022-09-09T16:04:30;3.93;;;0.97;;
19645;SDS011;9971;52.446;13.452;2022-09-09T16:09:34;1.30;;;0.98;;
19645;SDS011;9971;52.446;13.452;2022-09-09T16:14:35;1.47;;;1.00;;
19645;SDS011;9971;52.446;13.452;2022-09-09T16:19:37;1.17;;;0.88;;
19645;SDS011;9971;52.446;13.452;2022-09-09T16:24:39;1.85;;;1.10;;
19645;SDS011;9971;52.446;13.452;2022-09-09T16:29:42;1.57;;;1.30;;
19645;SDS011;9971;52.446;13.452;2022-09-09T16:34:44;2.75;;;1.87;;
19645;SDS011;9971;52.446;13.452;2022-09-09T16:39:46;1.45;;;1.30;;
19645;SDS011;9971;52.446;13.452;2022-09-09T16:44:49;2.12;;;1.35;;
19645;SDS011;9971;52.446;13.452;2022-09-09T16:49:51;2.08;;;1.20;;
19645;SDS011;9971;52.446;13.452;2022-09-09T16:54:54;2.83;;;1.20;;
19645;SDS011;9971;52.446;13.452;2022-09-09T16:59:56;2.55;;;1.15;;
19645;SDS011;9971;52.446;13.452;2022-09-09T17:04:58;1.92;;;0.85;;
19645;SDS011;9971;52.446;13.452;2022-09-09T17:10:01;1.60;;;1.03;;
19645;SDS011;9971;52.446;13.452;2022-09-09T17:15:03;1.72;;;1.00;;
19645;SDS011;9971;52.446;13.452;2022-09-09T17:20:06;2.25;;;1.20;;
19645;SDS011;9971;52.446;13.452;2022-09-09T17:25:09;1.40;;;0.95;;
19645;SDS011;9971;52.446;13.452;2022-09-09T17:30:11;1.27;;;0.87;;
19645;SDS011;9971;52.446;13.452;2022-09-09T17:35:14;1.98;;;1.12;;
19645;SDS011;9971;52.446;13.452;2022-09-09T17:40:16;3.23;;;1.10;;
19645;SDS011;9971;52.446;13.452;2022-09-09T17:45:18;2.95;;;1.30;;
19645;SDS011;9971;52.446;13.452;2022-09-09T17:50:21;2.23;;;1.40;;
19645;SDS011;9971;52.446;13.452;2022-09-09T17:55:23;2.45;;;1.40;;
19645;SDS011;9971;52.446;13.452;2022-09-09T18:00:26;1.72;;;1.10;;
19645;SDS011;9971;52.446;13.452;2022-09-09T18:05:28;2.08;;;1.32;;
19645;SDS011;9971;52.446;13.452;2022-09-09T18:10:31;1.70;;;1.33;;
19645;SDS011;9971;52.446;13.452;2022-09-09T18:15:35;1.20;;;1.10;;
19645;SDS011;9971;52.446;13.452;2022-09-09T18:20:37;1.37;;;1.10;;
19645;SDS011;9971;52.446;13.452;2022-09-09T18:25:39;1.67;;;1.32;;
19645;SDS011;9971;52.446;13.452;2022-09-09T18:30:41;1.40;;;1.27;;
19645;SDS011;9971;52.446;13.452;2022-09-09T18:35:44;2.50;;;1.25;;
19645;SDS011;9971;52.446;13.452;2022-09-09T18:40:46;0.97;;;0.93;;
19645;SDS011;9971;52.446;13.452;2022-09-09T18:45:48;4.15;;;1.37;;
19645;SDS011;9971;52.446;13.452;2022-09-09T18:50:51;1.42;;;1.32;;
19645;SDS011;9971;52.446;13.452;2022-09-09T18:55:56;2.90;;;1.67;;
19645;SDS011;9971;52.446;13.452;2022-09-09T19:00:58;1.73;;;1.03;;
19645;SDS011;9971;52.446;13.452;2022-09-09T19:06:00;2.17;;;1.00;;
19645;SDS011;9971;52.446;13.452;2022-09-09T19:11:07;1.80;;;1.23;;
19645;SDS011;9971;52.446;13.452;2022-09-09T19:16:08;1.30;;;1.13;;
19645;SDS011;9971;52.446;13.452;2022-09-09T19:21:14;2.90;;;1.33;;
19645;SDS011;9971;52.446;13.452;2022-09-09T19:26:15;2.62;;;2.22;;
19645;SDS011;9971;52.446;13.452;2022-09-09T19:31:18;2.33;;;1.87;;
19645;SDS011;9971;52.446;13.452;2022-09-09T19:36:20;5.10;;;1.80;;
19645;SDS011;9971;52.446;13.452;2022-09-09T19:41:23;2.77;;;1.60;;
19645;SDS011;9971;52.446;13.452;2022-09-09T19:46:24;1.50;;;1.40;;
19645;SDS011;9971;52.446;13.452;2022-09-09T19:51:27;2.67;;;1.20;;
19645;SDS011;9971;52.446;13.452;2022-09-09T19:56:29;1.53;;;1.40;;
19645;SDS011;9971;52.446;13.452;2022-09-09T20:01:32;1.57;;;1.17;;
19645;SDS011;9971;52.446;13.452;2022-09-09T20:06:34;2.60;;;1.00;;
19645;SDS011;9971;52.446;13.452;2022-09-09T20:11:35;1.20;;;1.03;;
19645;SDS011;9971;52.446;13.452;2022-09-09T20:16:37;2.30;;;1.20;;
19645;SDS011;9971;52.446;13.452;2022-09-09T20:21:40;3.30;;;1.93;;
19645;SDS011;9971;52.446;13.452;2022-09-09T20:26:41;2.27;;;1.70;;
19645;SDS011;9971;52.446;13.452;2022-09-09T20:31:43;2.83;;;0.90;;
19645;SDS011;9971;52.446;13.452;2022-09-09T20:36:45;1.70;;;0.95;;
19645;SDS011;9971;52.446;13.452;2022-09-09T20:41:47;2.63;;;1.10;;
19645;SDS011;9971;52.446;13.452;2022-09-09T20:46:50;2.23;;;0.90;;
19645;SDS011;9971;52.446;13.452;2022-09-09T20:51:51;0.93;;;0.83;;
19645;SDS011;9971;52.446;13.452;2022-09-09T20:56:53;1.83;;;1.07;;
19645;SDS011;9971;52.446;13.452;2022-09-09T21:01:55;3.08;;;0.90;;
19645;SDS011;9971;52.446;13.452;2022-09-09T21:06:57;2.30;;;1.20;;
19645;SDS011;9971;52.446;13.452;2022-09-09T21:11:59;2.12;;;1.00;;
19645;SDS011;9971;52.446;13.452;2022-09-09T21:17:01;0.98;;;0.80;;
19645;SDS011;9971;52.446;13.452;2022-09-09T21:22:04;2.22;;;1.17;;
19645;SDS011;9971;52.446;13.452;2022-09-09T21:27:06;1.33;;;1.10;;
19645;SDS011;9971;52.446;13.452;2022-09-09T21:32:09;2.10;;;0.93;;
19645;SDS011;9971;52.446;13.452;2022-09-09T21:37:11;3.77;;;1.15;;
19645;SDS011;9971;52.446;13.452;2022-09-09T21:42:14;1.32;;;0.90;;
19645;SDS011;9971;52.446;13.452;2022-09-09T21:47:16;1.80;;;1.00;;
19645;SDS011;9971;52.446;13.452;2022-09-09T21:52:19;2.45;;;1.20;;
19645;SDS011;9971;52.446;13.452;2022-09-09T21:57:21;2.20;;;1.00;;
19645;SDS011;9971;52.446;13.452;2022-09-09T22:02:24;2.67;;;0.98;;
19645;SDS011;9971;52.446;13.452;2022-09-09T22:07:26;1.65;;;0.80;;
19645;SDS011;9971;52.446;13.452;2022-09-09T22:12:29;1.75;;;1.25;;
19645;SDS011;9971;52.446;13.452;2022-09-09T22:17:31;1.47;;;1.10;;
19645;SDS011;9971;52.446;13.452;2022-09-09T22:22:33;1.40;;;1.30;;
19645;SDS011;9971;52.446;13.452;2022-09-09T22:27:35;1.95;;;1.70;;
19645;SDS011;9971;52.446;13.452;2022-09-09T22:32:37;1.37;;;1.27;;
19645;SDS011;9971;52.446;13.452;2022-09-09T22:37:40;2.00;;;1.30;;
19645;SDS011;9971;52.446;13.452;2022-09-09T22:42:43;3.15;;;1.42;;
19645;SDS011;9971;52.446;13.452;2022-09-09T22:47:45;2.13;;;1.10;;
19645;SDS011;9971;52.446;13.452;2022-09-09T22:52:47;1.47;;;1.10;;
19645;SDS011;9971;52.446;13.452;2022-09-09T22:57:50;1.80;;;1.32;;
19645;SDS011;9971;52.446;13.452;2022-09-09T23:02:52;1.20;;;1.10;;
19645;SDS011;9971;52.446;13.452;2022-09-09T23:07:54;1.37;;;1.00;;
19645;SDS011;9971;52.446;13.452;2022-09-09T23:12:56;2.20;;;1.00;;
19645;SDS011;9971;52.446;13.452;2022-09-09T23:17:59;2.87;;;1.20;;
19645;SDS011;9971;52.446;13.452;2022-09-09T23:23:01;1.57;;;1.02;;
19645;SDS011;9971;52.446;13.452;2022-09-09T23:28:04;1.47;;;1.22;;
19645;SDS011;9971;52.446;13.452;2022-09-09T23:33:06;1.40;;;1.30;;
19645;SDS011;9971;52.446;13.452;2022-09-09T23:38:09;4.57;;;1.50;;
19645;SDS011;9971;52.446;13.452;2022-09-09T23:43:11;1.55;;;1.20;;
19645;SDS011;9971;52.446;13.452;2022-09-09T23:48:14;2.30;;;0.93;;
19645;SDS011;9971;52.446;13.452;2022-09-09T23:53:16;1.23;;;1.10;;
19645;SDS011;9971;52.446;13.452;2022-09-09T23:58:19;1.72;;;1.07;;
